Terminal Aerodrome Forecast
Issued by NWS

Home | Current Version | Previous Version | Text Only | Print | Product List | Glossary On
Versions: 1 2 3 4 5 6 7 8 9 10 11 12 13 14 15
190
FTUS45 KTFX 251743
TAFCTB
TAF
KCTB 251743Z 2518/2618 32010KT P6SM VCSH BKN050
     FM260200 30008KT P6SM BKN050
     FM261500 28005KT P6SM VCSH BKN050=

USA.gov is the U.S. government's official web portal to all federal, state and local government web resources and services.